sensor_id;sensor_type;location;lat;lon;timestamp;temperature;humidity
17859;DHT22;35426;30.698;104.050;2023-04-16T00:00:46;29.00;99.90
17859;DHT22;35426;30.698;104.050;2023-04-16T00:03:19;29.50;99.90
17859;DHT22;35426;30.698;104.050;2023-04-16T00:05:55;29.10;99.90
17859;DHT22;35426;30.698;104.050;2023-04-16T00:08:28;29.70;99.90
17859;DHT22;35426;30.698;104.050;2023-04-16T00:11:07;29.60;99.90
17859;DHT22;35426;30.698;104.050;2023-04-16T00:13:40;29.90;99.90
17859;DHT22;35426;30.698;104.050;2023-04-16T00:16:15;29.90;99.90
17859;DHT22;35426;30.698;104.050;2023-04-16T00:18:49;29.90;99.90
17859;DHT22;35426;30.698;104.050;2023-04-16T00:21:24;29.20;99.90
17859;DHT22;35426;30.698;104.050;2023-04-16T00:23:57;29.70;99.90
17859;DHT22;35426;30.698;104.050;2023-04-16T00:26:31;29.40;99.90
17859;DHT22;35426;30.698;104.050;2023-04-16T00:29:04;29.70;99.90
17859;DHT22;35426;30.698;104.050;2023-04-16T00:31:38;30.60;99.90
17859;DHT22;35426;30.698;104.050;2023-04-16T00:34:12;30.10;99.90
17859;DHT22;35426;30.698;104.050;2023-04-16T00:36:49;30.50;99.90
17859;DHT22;35426;30.698;104.050;2023-04-16T00:39:23;30.80;99.90
17859;DHT22;35426;30.698;104.050;2023-04-16T00:41:56;31.10;99.90
17859;DHT22;35426;30.698;104.050;2023-04-16T00:44:30;30.80;99.90
17859;DHT22;35426;30.698;104.050;2023-04-16T00:47:09;30.70;99.90
17859;DHT22;35426;30.698;104.050;2023-04-16T00:49:43;30.50;99.90
17859;DHT22;35426;30.698;104.050;2023-04-16T00:52:22;30.50;99.90
17859;DHT22;35426;30.698;104.050;2023-04-16T00:54:57;30.80;99.90
17859;DHT22;35426;30.698;104.050;2023-04-16T00:57:31;31.00;99.90
17859;DHT22;35426;30.698;104.050;2023-04-16T01:00:06;31.60;99.90
17859;DHT22;35426;30.698;104.050;2023-04-16T01:02:39;32.00;99.90
17859;DHT22;35426;30.698;104.050;2023-04-16T01:05:13;32.00;99.90
17859;DHT22;35426;30.698;104.050;2023-04-16T01:07:48;32.30;99.90
17859;DHT22;35426;30.698;104.050;2023-04-16T01:10:24;31.60;99.90
17859;DHT22;35426;30.698;104.050;2023-04-16T01:12:57;32.20;99.90
17859;DHT22;35426;30.698;104.050;2023-04-16T01:15:31;32.20;99.90
17859;DHT22;35426;30.698;104.050;2023-04-16T01:18:13;32.80;99.90
17859;DHT22;35426;30.698;104.050;2023-04-16T01:20:50;32.20;99.90
17859;DHT22;35426;30.698;104.050;2023-04-16T01:23:23;32.60;99.90
17859;DHT22;35426;30.698;104.050;2023-04-16T01:25:57;32.20;99.90
17859;DHT22;35426;30.698;104.050;2023-04-16T01:28:30;32.80;99.90
17859;DHT22;35426;30.698;104.050;2023-04-16T01:31:03;33.00;99.90
17859;DHT22;35426;30.698;104.050;2023-04-16T01:33:50;33.10;99.90
17859;DHT22;35426;30.698;104.050;2023-04-16T01:36:26;33.10;99.90
17859;DHT22;35426;30.698;104.050;2023-04-16T01:38:59;33.10;99.90
17859;DHT22;35426;30.698;104.050;2023-04-16T01:41:33;33.30;99.90
17859;DHT22;35426;30.698;104.050;2023-04-16T01:44:06;33.50;99.90
17859;DHT22;35426;30.698;104.050;2023-04-16T01:46:39;33.50;99.90
17859;DHT22;35426;30.698;104.050;2023-04-16T01:49:13;33.70;99.90
17859;DHT22;35426;30.698;104.050;2023-04-16T01:51:48;33.80;99.90
17859;DHT22;35426;30.698;104.050;2023-04-16T01:54:21;33.10;99.90
17859;DHT22;35426;30.698;104.050;2023-04-16T01:56:55;32.50;99.90
17859;DHT22;35426;30.698;104.050;2023-04-16T01:59:29;31.90;99.90
17859;DHT22;35426;30.698;104.050;2023-04-16T02:02:07;31.80;99.90
17859;DHT22;35426;30.698;104.050;2023-04-16T02:04:44;32.20;99.90
17859;DHT22;35426;30.698;104.050;2023-04-16T02:07:20;32.80;99.90
17859;DHT22;35426;30.698;104.050;2023-04-16T02:09:54;33.00;99.90
17859;DHT22;35426;30.698;104.050;2023-04-16T02:12:29;33.40;99.90
17859;DHT22;35426;30.698;104.050;2023-04-16T02:15:06;34.00;99.90
17859;DHT22;35426;30.698;104.050;2023-04-16T02:17:40;34.00;99.90
17859;DHT22;35426;30.698;104.050;2023-04-16T02:20:47;34.10;99.90
17859;DHT22;35426;30.698;104.050;2023-04-16T02:23:21;34.20;99.90
17859;DHT22;35426;30.698;104.050;2023-04-16T02:25:59;33.70;99.90
17859;DHT22;35426;30.698;104.050;2023-04-16T02:28:35;33.60;99.90
17859;DHT22;35426;30.698;104.050;2023-04-16T02:31:11;32.90;99.90
17859;DHT22;35426;30.698;104.050;2023-04-16T02:33:45;33.30;99.90
17859;DHT22;35426;30.698;104.050;2023-04-16T02:36:20;33.70;99.90
17859;DHT22;35426;30.698;104.050;2023-04-16T02:38:55;33.80;99.90
17859;DHT22;35426;30.698;104.050;2023-04-16T02:41:28;34.20;99.90
17859;DHT22;35426;30.698;104.050;2023-04-16T02:44:02;34.40;99.90
17859;DHT22;35426;30.698;104.050;2023-04-16T02:46:35;34.80;99.90
17859;DHT22;35426;30.698;104.050;2023-04-16T02:49:09;34.70;99.90
17859;DHT22;35426;30.698;104.050;2023-04-16T02:51:46;34.90;99.90
17859;DHT22;35426;30.698;104.050;2023-04-16T02:54:19;35.00;99.90
17859;DHT22;35426;30.698;104.050;2023-04-16T02:56:53;34.70;99.90
17859;DHT22;35426;30.698;104.050;2023-04-16T02:59:26;35.00;99.90
17859;DHT22;35426;30.698;104.050;2023-04-16T03:02:00;34.80;99.90
17859;DHT22;35426;30.698;104.050;2023-04-16T03:04:33;35.20;99.90
17859;DHT22;35426;30.698;104.050;2023-04-16T03:07:10;34.60;99.90
17859;DHT22;35426;30.698;104.050;2023-04-16T03:09:43;34.90;99.90
17859;DHT22;35426;30.698;104.050;2023-04-16T03:12:16;35.30;99.90
17859;DHT22;35426;30.698;104.050;2023-04-16T03:14:51;35.30;99.90
17859;DHT22;35426;30.698;104.050;2023-04-16T03:17:24;35.10;99.90
17859;DHT22;35426;30.698;104.050;2023-04-16T03:19:58;35.40;99.90
17859;DHT22;35426;30.698;104.050;2023-04-16T03:22:33;35.70;99.90
17859;DHT22;35426;30.698;104.050;2023-04-16T03:25:07;35.70;99.90
17859;DHT22;35426;30.698;104.050;2023-04-16T03:27:40;35.90;99.90
17859;DHT22;35426;30.698;104.050;2023-04-16T03:30:15;35.40;99.90
17859;DHT22;35426;30.698;104.050;2023-04-16T03:32:48;35.80;99.90
17859;DHT22;35426;30.698;104.050;2023-04-16T03:35:22;36.00;99.80
17859;DHT22;35426;30.698;104.050;2023-04-16T03:37:57;35.70;99.30
17859;DHT22;35426;30.698;104.050;2023-04-16T03:40:30;35.20;99.90
17859;DHT22;35426;30.698;104.050;2023-04-16T03:43:04;35.30;99.90
17859;DHT22;35426;30.698;104.050;2023-04-16T03:45:44;35.20;99.80
17859;DHT22;35426;30.698;104.050;2023-04-16T03:48:19;35.50;99.90
17859;DHT22;35426;30.698;104.050;2023-04-16T03:50:52;35.50;99.70
17859;DHT22;35426;30.698;104.050;2023-04-16T03:53:27;35.30;99.90
17859;DHT22;35426;30.698;104.050;2023-04-16T03:56:01;35.20;99.80
17859;DHT22;35426;30.698;104.050;2023-04-16T03:58:36;35.00;99.80
17859;DHT22;35426;30.698;104.050;2023-04-16T04:01:09;35.00;99.90
17859;DHT22;35426;30.698;104.050;2023-04-16T04:03:47;34.80;99.90
17859;DHT22;35426;30.698;104.050;2023-04-16T04:06:21;34.40;99.90
17859;DHT22;35426;30.698;104.050;2023-04-16T04:08:56;34.20;99.90
17859;DHT22;35426;30.698;104.050;2023-04-16T04:11:29;34.20;99.90
17859;DHT22;35426;30.698;104.050;2023-04-16T04:14:06;34.10;99.90
17859;DHT22;35426;30.698;104.050;2023-04-16T04:16:39;33.90;99.90
17859;DHT22;35426;30.698;104.050;2023-04-16T04:19:13;33.90;99.90
17859;DHT22;35426;30.698;104.050;2023-04-16T04:21:47;33.70;99.90
17859;DHT22;35426;30.698;104.050;2023-04-16T04:24:23;33.70;99.90
17859;DHT22;35426;30.698;104.050;2023-04-16T04:26:58;33.60;99.90
17859;DHT22;35426;30.698;104.050;2023-04-16T04:29:34;33.50;99.90
17859;DHT22;35426;30.698;104.050;2023-04-16T04:32:09;33.40;99.90
17859;DHT22;35426;30.698;104.050;2023-04-16T04:34:42;33.00;99.90
17859;DHT22;35426;30.698;104.050;2023-04-16T04:37:16;33.00;99.90
17859;DHT22;35426;30.698;104.050;2023-04-16T04:39:51;33.00;99.90
17859;DHT22;35426;30.698;104.050;2023-04-16T04:42:28;32.80;99.90
17859;DHT22;35426;30.698;104.050;2023-04-16T04:45:02;32.80;99.90
17859;DHT22;35426;30.698;104.050;2023-04-16T04:47:36;32.70;99.90
17859;DHT22;35426;30.698;104.050;2023-04-16T04:50:10;32.40;99.90
17859;DHT22;35426;30.698;104.050;2023-04-16T04:52:45;32.40;99.90
17859;DHT22;35426;30.698;104.050;2023-04-16T04:55:20;32.50;99.90
17859;DHT22;35426;30.698;104.050;2023-04-16T04:57:54;32.60;99.90
17859;DHT22;35426;30.698;104.050;2023-04-16T05:00:27;32.60;99.90
17859;DHT22;35426;30.698;104.050;2023-04-16T05:03:04;32.50;99.90
17859;DHT22;35426;30.698;104.050;2023-04-16T05:05:38;32.00;99.90
17859;DHT22;35426;30.698;104.050;2023-04-16T05:08:13;31.90;99.90
17859;DHT22;35426;30.698;104.050;2023-04-16T05:10:51;31.80;99.90
17859;DHT22;35426;30.698;104.050;2023-04-16T05:13:24;31.50;99.90
17859;DHT22;35426;30.698;104.050;2023-04-16T05:15:58;31.60;99.90
17859;DHT22;35426;30.698;104.050;2023-04-16T05:18:33;31.80;99.90
17859;DHT22;35426;30.698;104.050;2023-04-16T05:21:06;31.80;99.90
17859;DHT22;35426;30.698;104.050;2023-04-16T05:23:40;31.70;99.90
17859;DHT22;35426;30.698;104.050;2023-04-16T05:26:15;31.80;99.90
17859;DHT22;35426;30.698;104.050;2023-04-16T05:28:49;31.80;99.90
17859;DHT22;35426;30.698;104.050;2023-04-16T05:31:23;31.80;99.90
17859;DHT22;35426;30.698;104.050;2023-04-16T05:33:56;32.00;99.90
17859;DHT22;35426;30.698;104.050;2023-04-16T05:36:29;32.30;99.90
17859;DHT22;35426;30.698;104.050;2023-04-16T05:39:02;32.30;99.90
17859;DHT22;35426;30.698;104.050;2023-04-16T05:41:37;32.30;99.90
17859;DHT22;35426;30.698;104.050;2023-04-16T05:44:11;32.30;99.90
17859;DHT22;35426;30.698;104.050;2023-04-16T05:46:47;32.40;99.90
17859;DHT22;35426;30.698;104.050;2023-04-16T05:49:20;32.20;99.90
17859;DHT22;35426;30.698;104.050;2023-04-16T05:51:53;32.30;99.90
17859;DHT22;35426;30.698;104.050;2023-04-16T05:54:26;31.90;99.90
17859;DHT22;35426;30.698;104.050;2023-04-16T05:57:01;32.00;99.90
17859;DHT22;35426;30.698;104.050;2023-04-16T05:59:35;31.90;99.90
17859;DHT22;35426;30.698;104.050;2023-04-16T06:02:08;31.50;99.90
17859;DHT22;35426;30.698;104.050;2023-04-16T06:04:41;31.70;99.90
17859;DHT22;35426;30.698;104.050;2023-04-16T06:07:15;31.40;99.90
17859;DHT22;35426;30.698;104.050;2023-04-16T06:09:48;31.40;99.90
17859;DHT22;35426;30.698;104.050;2023-04-16T06:12:24;31.40;99.90
17859;DHT22;35426;30.698;104.050;2023-04-16T06:14:58;31.40;99.90
17859;DHT22;35426;30.698;104.050;2023-04-16T06:17:32;31.50;99.90
17859;DHT22;35426;30.698;104.050;2023-04-16T06:20:06;31.40;99.90
17859;DHT22;35426;30.698;104.050;2023-04-16T06:22:42;31.60;99.90
17859;DHT22;35426;30.698;104.050;2023-04-16T06:25:16;31.70;99.90
17859;DHT22;35426;30.698;104.050;2023-04-16T06:27:51;31.70;99.90
17859;DHT22;35426;30.698;104.050;2023-04-16T06:30:28;31.60;99.90
17859;DHT22;35426;30.698;104.050;2023-04-16T06:33:03;31.80;99.90
17859;DHT22;35426;30.698;104.050;2023-04-16T06:35:36;31.70;99.90
17859;DHT22;35426;30.698;104.050;2023-04-16T06:38:09;31.90;99.90
17859;DHT22;35426;30.698;104.050;2023-04-16T06:40:43;32.00;99.90
17859;DHT22;35426;30.698;104.050;2023-04-16T06:43:18;32.10;99.90
17859;DHT22;35426;30.698;104.050;2023-04-16T06:45:51;32.00;99.90
17859;DHT22;35426;30.698;104.050;2023-04-16T06:48:24;32.30;99.90
17859;DHT22;35426;30.698;104.050;2023-04-16T06:50:57;32.20;99.90
17859;DHT22;35426;30.698;104.050;2023-04-16T06:53:31;32.10;99.90
17859;DHT22;35426;30.698;104.050;2023-04-16T06:56:17;32.10;99.90
17859;DHT22;35426;30.698;104.050;2023-04-16T06:58:53;32.30;99.90
17859;DHT22;35426;30.698;104.050;2023-04-16T07:01:28;32.30;99.90
17859;DHT22;35426;30.698;104.050;2023-04-16T07:04:06;32.40;99.90
17859;DHT22;35426;30.698;104.050;2023-04-16T07:06:44;32.40;99.90
17859;DHT22;35426;30.698;104.050;2023-04-16T07:09:17;32.30;99.90
17859;DHT22;35426;30.698;104.050;2023-04-16T07:11:51;32.30;99.90
17859;DHT22;35426;30.698;104.050;2023-04-16T07:14:31;32.60;99.90
17859;DHT22;35426;30.698;104.050;2023-04-16T07:17:05;32.70;99.90
17859;DHT22;35426;30.698;104.050;2023-04-16T07:19:38;32.80;99.90
17859;DHT22;35426;30.698;104.050;2023-04-16T07:22:14;32.70;99.90
17859;DHT22;35426;30.698;104.050;2023-04-16T07:24:47;32.60;99.90
17859;DHT22;35426;30.698;104.050;2023-04-16T07:27:21;32.60;99.90
17859;DHT22;35426;30.698;104.050;2023-04-16T07:29:56;32.50;99.90
17859;DHT22;35426;30.698;104.050;2023-04-16T07:32:32;32.50;99.90
17859;DHT22;35426;30.698;104.050;2023-04-16T07:35:05;32.70;99.90
17859;DHT22;35426;30.698;104.050;2023-04-16T07:37:38;32.70;99.90
17859;DHT22;35426;30.698;104.050;2023-04-16T07:40:12;32.80;99.90
17859;DHT22;35426;30.698;104.050;2023-04-16T07:42:45;32.80;99.90
17859;DHT22;35426;30.698;104.050;2023-04-16T07:45:22;32.80;99.90
17859;DHT22;35426;30.698;104.050;2023-04-16T07:47:55;32.90;99.90
17859;DHT22;35426;30.698;104.050;2023-04-16T07:50:31;33.10;99.90
17859;DHT22;35426;30.698;104.050;2023-04-16T07:53:04;33.30;99.90
17859;DHT22;35426;30.698;104.050;2023-04-16T07:55:38;33.50;99.90
17859;DHT22;35426;30.698;104.050;2023-04-16T07:58:10;33.50;99.90
17859;DHT22;35426;30.698;104.050;2023-04-16T08:00:46;33.50;99.90
17859;DHT22;35426;30.698;104.050;2023-04-16T08:03:19;33.70;99.90
17859;DHT22;35426;30.698;104.050;2023-04-16T08:05:53;33.60;99.90
17859;DHT22;35426;30.698;104.050;2023-04-16T08:08:27;33.40;99.90
17859;DHT22;35426;30.698;104.050;2023-04-16T08:11:01;33.50;99.90
17859;DHT22;35426;30.698;104.050;2023-04-16T08:13:34;33.70;99.90
17859;DHT22;35426;30.698;104.050;2023-04-16T08:16:09;33.70;99.90
17859;DHT22;35426;30.698;104.050;2023-04-16T08:18:42;33.80;99.90
17859;DHT22;35426;30.698;104.050;2023-04-16T08:21:15;33.70;99.90
17859;DHT22;35426;30.698;104.050;2023-04-16T08:23:49;33.60;99.90
17859;DHT22;35426;30.698;104.050;2023-04-16T08:26:23;33.60;99.90
17859;DHT22;35426;30.698;104.050;2023-04-16T08:28:58;33.30;99.90
17859;DHT22;35426;30.698;104.050;2023-04-16T08:31:33;33.30;99.90
17859;DHT22;35426;30.698;104.050;2023-04-16T08:34:07;33.20;99.90
17859;DHT22;35426;30.698;104.050;2023-04-16T08:36:41;33.30;99.90
17859;DHT22;35426;30.698;104.050;2023-04-16T08:39:15;33.10;99.90
17859;DHT22;35426;30.698;104.050;2023-04-16T08:41:49;33.10;99.90
17859;DHT22;35426;30.698;104.050;2023-04-16T08:44:26;33.20;99.90
17859;DHT22;35426;30.698;104.050;2023-04-16T08:47:03;33.10;99.90
17859;DHT22;35426;30.698;104.050;2023-04-16T08:49:43;33.30;99.90
17859;DHT22;35426;30.698;104.050;2023-04-16T08:52:19;33.30;99.90
17859;DHT22;35426;30.698;104.050;2023-04-16T08:54:59;33.00;99.90
17859;DHT22;35426;30.698;104.050;2023-04-16T08:57:42;32.70;99.90
17859;DHT22;35426;30.698;104.050;2023-04-16T09:00:22;32.50;99.90
17859;DHT22;35426;30.698;104.050;2023-04-16T09:03:00;32.30;99.90
17859;DHT22;35426;30.698;104.050;2023-04-16T09:05:35;32.30;99.90
17859;DHT22;35426;30.698;104.050;2023-04-16T09:08:08;32.30;99.90
17859;DHT22;35426;30.698;104.050;2023-04-16T09:10:43;32.30;99.90
17859;DHT22;35426;30.698;104.050;2023-04-16T09:13:17;32.40;99.90
17859;DHT22;35426;30.698;104.050;2023-04-16T09:15:53;32.50;99.90
17859;DHT22;35426;30.698;104.050;2023-04-16T09:18:29;32.70;99.90
17859;DHT22;35426;30.698;104.050;2023-04-16T09:21:03;32.50;99.90
17859;DHT22;35426;30.698;104.050;2023-04-16T09:23:38;32.10;99.90
17859;DHT22;35426;30.698;104.050;2023-04-16T09:26:11;32.00;99.90
17859;DHT22;35426;30.698;104.050;2023-04-16T09:28:48;32.10;99.90
17859;DHT22;35426;30.698;104.050;2023-04-16T09:31:23;32.00;99.90
17859;DHT22;35426;30.698;104.050;2023-04-16T09:34:06;32.00;99.90
17859;DHT22;35426;30.698;104.050;2023-04-16T09:36:39;31.70;99.90
17859;DHT22;35426;30.698;104.050;2023-04-16T09:39:18;31.80;99.90
17859;DHT22;35426;30.698;104.050;2023-04-16T09:41:52;31.90;99.90
17859;DHT22;35426;30.698;104.050;2023-04-16T09:44:34;31.80;99.90
17859;DHT22;35426;30.698;104.050;2023-04-16T09:47:09;31.60;99.90
17859;DHT22;35426;30.698;104.050;2023-04-16T09:49:43;31.50;99.90
17859;DHT22;35426;30.698;104.050;2023-04-16T09:52:19;31.50;99.90
17859;DHT22;35426;30.698;104.050;2023-04-16T09:54:53;31.40;99.90
17859;DHT22;35426;30.698;104.050;2023-04-16T09:57:28;31.40;99.90
17859;DHT22;35426;30.698;104.050;2023-04-16T10:00:08;31.30;99.90
17859;DHT22;35426;30.698;104.050;2023-04-16T10:02:43;31.40;99.90
17859;DHT22;35426;30.698;104.050;2023-04-16T10:05:20;31.40;99.90
17859;DHT22;35426;30.698;104.050;2023-04-16T10:07:59;31.50;99.90
17859;DHT22;35426;30.698;104.050;2023-04-16T10:10:34;31.40;99.90
17859;DHT22;35426;30.698;104.050;2023-04-16T10:13:10;31.50;99.90
17859;DHT22;35426;30.698;104.050;2023-04-16T10:15:48;31.50;99.90
17859;DHT22;35426;30.698;104.050;2023-04-16T10:18:22;31.40;99.90
17859;DHT22;35426;30.698;104.050;2023-04-16T10:20:58;31.30;99.90
17859;DHT22;35426;30.698;104.050;2023-04-16T10:23:32;31.20;99.90
17859;DHT22;35426;30.698;104.050;2023-04-16T10:26:06;31.20;99.90
17859;DHT22;35426;30.698;104.050;2023-04-16T10:28:40;31.10;99.90
17859;DHT22;35426;30.698;104.050;2023-04-16T10:31:15;31.10;99.90
17859;DHT22;35426;30.698;104.050;2023-04-16T10:33:49;31.10;99.90
17859;DHT22;35426;30.698;104.050;2023-04-16T10:36:26;30.90;99.90
17859;DHT22;35426;30.698;104.050;2023-04-16T10:38:59;30.80;99.90
17859;DHT22;35426;30.698;104.050;2023-04-16T10:41:32;30.70;99.90
17859;DHT22;35426;30.698;104.050;2023-04-16T10:44:07;30.70;99.90
17859;DHT22;35426;30.698;104.050;2023-04-16T10:46:41;30.70;99.90
17859;DHT22;35426;30.698;104.050;2023-04-16T10:49:16;30.60;99.90
17859;DHT22;35426;30.698;104.050;2023-04-16T10:51:56;30.70;99.90
17859;DHT22;35426;30.698;104.050;2023-04-16T10:54:31;30.60;99.90
17859;DHT22;35426;30.698;104.050;2023-04-16T10:57:07;30.60;99.90
17859;DHT22;35426;30.698;104.050;2023-04-16T10:59:42;30.70;99.90
17859;DHT22;35426;30.698;104.050;2023-04-16T11:02:16;30.60;99.90
17859;DHT22;35426;30.698;104.050;2023-04-16T11:04:50;30.60;99.90
17859;DHT22;35426;30.698;104.050;2023-04-16T11:07:34;30.60;99.90
17859;DHT22;35426;30.698;104.050;2023-04-16T11:10:13;30.40;99.90
17859;DHT22;35426;30.698;104.050;2023-04-16T11:12:47;30.30;99.90
17859;DHT22;35426;30.698;104.050;2023-04-16T11:15:20;30.20;99.90
17859;DHT22;35426;30.698;104.050;2023-04-16T11:17:54;30.20;99.90
17859;DHT22;35426;30.698;104.050;2023-04-16T11:20:28;30.10;99.90
17859;DHT22;35426;30.698;104.050;2023-04-16T11:23:10;30.00;99.90
17859;DHT22;35426;30.698;104.050;2023-04-16T11:25:43;29.90;99.90
17859;DHT22;35426;30.698;104.050;2023-04-16T11:28:17;29.80;99.90
17859;DHT22;35426;30.698;104.050;2023-04-16T11:30:51;29.80;99.90
17859;DHT22;35426;30.698;104.050;2023-04-16T11:33:26;29.70;99.90
17859;DHT22;35426;30.698;104.050;2023-04-16T11:36:00;29.70;99.90
17859;DHT22;35426;30.698;104.050;2023-04-16T11:38:37;29.70;99.90
17859;DHT22;35426;30.698;104.050;2023-04-16T11:41:19;29.60;99.90
17859;DHT22;35426;30.698;104.050;2023-04-16T11:43:53;29.60;99.90
17859;DHT22;35426;30.698;104.050;2023-04-16T11:46:39;29.60;99.90
17859;DHT22;35426;30.698;104.050;2023-04-16T11:49:13;29.60;99.90
17859;DHT22;35426;30.698;104.050;2023-04-16T11:51:47;29.60;99.90
17859;DHT22;35426;30.698;104.050;2023-04-16T11:54:23;29.50;99.90
17859;DHT22;35426;30.698;104.050;2023-04-16T11:56:57;29.40;99.90
17859;DHT22;35426;30.698;104.050;2023-04-16T11:59:30;29.40;99.90
17859;DHT22;35426;30.698;104.050;2023-04-16T12:02:04;29.40;99.90
17859;DHT22;35426;30.698;104.050;2023-04-16T12:04:38;29.40;99.90
17859;DHT22;35426;30.698;104.050;2023-04-16T12:07:12;29.30;99.90
17859;DHT22;35426;30.698;104.050;2023-04-16T12:09:49;29.20;99.90
17859;DHT22;35426;30.698;104.050;2023-04-16T12:12:31;29.20;99.90
17859;DHT22;35426;30.698;104.050;2023-04-16T12:15:07;29.10;99.90
17859;DHT22;35426;30.698;104.050;2023-04-16T12:17:43;29.10;99.90
17859;DHT22;35426;30.698;104.050;2023-04-16T12:20:24;29.00;99.90
17859;DHT22;35426;30.698;104.050;2023-04-16T12:22:58;28.90;99.90
17859;DHT22;35426;30.698;104.050;2023-04-16T12:25:59;28.90;99.90
17859;DHT22;35426;30.698;104.050;2023-04-16T12:28:44;28.90;99.90
17859;DHT22;35426;30.698;104.050;2023-04-16T12:31:18;28.90;99.90
17859;DHT22;35426;30.698;104.050;2023-04-16T12:34:08;28.90;99.90
17859;DHT22;35426;30.698;104.050;2023-04-16T12:36:43;28.90;99.90
17859;DHT22;35426;30.698;104.050;2023-04-16T12:39:17;28.80;99.90
17859;DHT22;35426;30.698;104.050;2023-04-16T12:41:52;28.80;99.90
17859;DHT22;35426;30.698;104.050;2023-04-16T12:44:26;28.80;99.90
17859;DHT22;35426;30.698;104.050;2023-04-16T12:46:59;28.70;99.90
17859;DHT22;35426;30.698;104.050;2023-04-16T12:49:36;28.70;99.90
17859;DHT22;35426;30.698;104.050;2023-04-16T12:52:09;28.70;99.90
17859;DHT22;35426;30.698;104.050;2023-04-16T12:54:44;28.70;99.90
17859;DHT22;35426;30.698;104.050;2023-04-16T12:57:22;28.70;99.90
17859;DHT22;35426;30.698;104.050;2023-04-16T12:59:59;28.70;99.90
17859;DHT22;35426;30.698;104.050;2023-04-16T13:02:32;28.60;99.90
17859;DHT22;35426;30.698;104.050;2023-04-16T13:05:07;28.60;99.90
17859;DHT22;35426;30.698;104.050;2023-04-16T13:07:44;28.50;99.90
17859;DHT22;35426;30.698;104.050;2023-04-16T13:10:22;28.60;99.90
17859;DHT22;35426;30.698;104.050;2023-04-16T13:12:59;28.60;99.90
17859;DHT22;35426;30.698;104.050;2023-04-16T13:15:34;28.60;99.90
17859;DHT22;35426;30.698;104.050;2023-04-16T13:18:09;28.60;99.90
17859;DHT22;35426;30.698;104.050;2023-04-16T13:20:44;28.60;99.90
17859;DHT22;35426;30.698;104.050;2023-04-16T13:23:19;28.50;99.90
17859;DHT22;35426;30.698;104.050;2023-04-16T13:25:52;28.50;99.90
17859;DHT22;35426;30.698;104.050;2023-04-16T13:28:27;28.40;99.90
17859;DHT22;35426;30.698;104.050;2023-04-16T13:31:00;28.40;99.90
17859;DHT22;35426;30.698;104.050;2023-04-16T13:33:34;28.30;99.90
17859;DHT22;35426;30.698;104.050;2023-04-16T13:36:08;28.30;99.90
17859;DHT22;35426;30.698;104.050;2023-04-16T13:38:42;28.30;99.90
17859;DHT22;35426;30.698;104.050;2023-04-16T13:41:16;28.30;99.90
17859;DHT22;35426;30.698;104.050;2023-04-16T13:43:52;28.20;99.90
17859;DHT22;35426;30.698;104.050;2023-04-16T13:46:25;28.20;99.90
17859;DHT22;35426;30.698;104.050;2023-04-16T13:49:01;28.20;99.90
17859;DHT22;35426;30.698;104.050;2023-04-16T13:51:34;28.20;99.90
17859;DHT22;35426;30.698;104.050;2023-04-16T13:54:07;28.20;99.90
17859;DHT22;35426;30.698;104.050;2023-04-16T13:56:41;28.10;99.90
17859;DHT22;35426;30.698;104.050;2023-04-16T13:59:16;28.10;99.90
17859;DHT22;35426;30.698;104.050;2023-04-16T14:01:51;28.10;99.90
17859;DHT22;35426;30.698;104.050;2023-04-16T14:04:27;28.00;99.90
17859;DHT22;35426;30.698;104.050;2023-04-16T14:07:08;28.00;99.90
17859;DHT22;35426;30.698;104.050;2023-04-16T14:09:44;28.00;99.90
17859;DHT22;35426;30.698;104.050;2023-04-16T14:12:17;28.00;99.90
17859;DHT22;35426;30.698;104.050;2023-04-16T14:14:52;28.00;99.90
17859;DHT22;35426;30.698;104.050;2023-04-16T14:17:26;27.90;99.90
17859;DHT22;35426;30.698;104.050;2023-04-16T14:20:00;27.90;99.90
17859;DHT22;35426;30.698;104.050;2023-04-16T14:22:35;27.80;99.90
17859;DHT22;35426;30.698;104.050;2023-04-16T14:25:11;27.70;99.90
17859;DHT22;35426;30.698;104.050;2023-04-16T14:27:44;27.70;99.90
17859;DHT22;35426;30.698;104.050;2023-04-16T14:30:19;27.60;99.90
17859;DHT22;35426;30.698;104.050;2023-04-16T14:32:52;27.50;99.90
17859;DHT22;35426;30.698;104.050;2023-04-16T14:35:42;27.50;99.90
17859;DHT22;35426;30.698;104.050;2023-04-16T14:38:46;27.60;99.90
17859;DHT22;35426;30.698;104.050;2023-04-16T14:41:39;27.60;99.90
17859;DHT22;35426;30.698;104.050;2023-04-16T14:44:30;27.70;99.90
17859;DHT22;35426;30.698;104.050;2023-04-16T14:47:22;27.70;99.90
17859;DHT22;35426;30.698;104.050;2023-04-16T14:50:01;27.50;99.90
17859;DHT22;35426;30.698;104.050;2023-04-16T14:52:52;27.60;99.90
17859;DHT22;35426;30.698;104.050;2023-04-16T14:55:38;27.60;99.90
17859;DHT22;35426;30.698;104.050;2023-04-16T14:58:19;27.50;99.90
17859;DHT22;35426;30.698;104.050;2023-04-16T15:01:20;27.30;99.90
17859;DHT22;35426;30.698;104.050;2023-04-16T15:04:55;27.20;99.90
17859;DHT22;35426;30.698;104.050;2023-04-16T15:07:34;27.30;99.90
17859;DHT22;35426;30.698;104.050;2023-04-16T15:10:35;27.50;99.90
17859;DHT22;35426;30.698;104.050;2023-04-16T15:13:26;27.50;99.90
17859;DHT22;35426;30.698;104.050;2023-04-16T15:16:18;27.40;99.90
17859;DHT22;35426;30.698;104.050;2023-04-16T15:19:23;27.40;99.90
17859;DHT22;35426;30.698;104.050;2023-04-16T15:22:06;27.40;99.90
17859;DHT22;35426;30.698;104.050;2023-04-16T15:24:43;27.40;99.90
17859;DHT22;35426;30.698;104.050;2023-04-16T15:27:19;27.40;99.90
17859;DHT22;35426;30.698;104.050;2023-04-16T15:30:16;27.40;99.90
17859;DHT22;35426;30.698;104.050;2023-04-16T15:32:51;27.30;99.90
17859;DHT22;35426;30.698;104.050;2023-04-16T15:35:24;27.40;99.90
17859;DHT22;35426;30.698;104.050;2023-04-16T15:37:59;27.40;99.90
17859;DHT22;35426;30.698;104.050;2023-04-16T15:40:38;27.30;99.90
17859;DHT22;35426;30.698;104.050;2023-04-16T15:43:30;27.30;99.90
17859;DHT22;35426;30.698;104.050;2023-04-16T15:46:25;27.10;99.90
17859;DHT22;35426;30.698;104.050;2023-04-16T15:49:07;27.10;99.90
17859;DHT22;35426;30.698;104.050;2023-04-16T15:51:53;27.00;99.90
17859;DHT22;35426;30.698;104.050;2023-04-16T15:55:01;27.00;99.90
17859;DHT22;35426;30.698;104.050;2023-04-16T15:57:39;27.10;99.90